This is the latest recevied weather packets stored in our database for station/object KC0RKM-13. If no packets are shown the sender has not sent any weather packets the latest 10 day(s).
| Time | Temp. | Humidity | Pressure | Rain* | Wind** | Luminosity | Snow |
|---|---|---|---|---|---|---|---|
| 1787962804 | 30° C | 44% | 1016.6 hPa | 0 mm | - | - | - |
| 1787955004 | 31.11° C | 40% | 1017 hPa | 0 mm | - | - | - |
| 1787954404 | 31.11° C | 41% | 1017.1 hPa | 0 mm | - | - | - |
| 1787953804 | 31.11° C | 40% | 1017.1 hPa | 0 mm | - | - | - |
| 1787949604 | 31.67° C | 42% | 1017.9 hPa | 0 mm | - | - | - |
| 1787946604 | 30.56° C | 41% | 1018.7 hPa | 0 mm | - | - | - |
| 1787945404 | 30.56° C | 44% | 1018.8 hPa | 0 mm | - | - | - |
| 1787944804 | 31.11° C | 42% | 1018.8 hPa | 0 mm | - | - | - |
| 1787941804 | 30° C | 45% | 1019.7 hPa | 0 mm | - | - | - |
| 1787941204 | 29.44° C | 46% | 1019.8 hPa | 0 mm | - | - | - |
| 1787940004 | 28.89° C | 47% | 1020.3 hPa | 0 mm | - | - | - |
| 1787939404 | 28.89° C | 50% | 1020.1 hPa | 0 mm | - | - | - |
| 1787937604 | 28.33° C | 50% | 1020.5 hPa | 0 mm | - | - | - |
| 1787934004 | 27.78° C | 52% | 1021 hPa | 0 mm | - | - | - |
| 1787933403 | 27.22° C | 53% | 1021 hPa | 0 mm | - | - | - |
| 1787930405 | 25.56° C | 62% | 1021.4 hPa | 0 mm | - | - | - |
| 1787929804 | 25° C | 66% | 1021.5 hPa | 0 mm | - | - | - |
| 1787929204 | 25° C | 63% | 1021.5 hPa | 0 mm | - | - | - |
| 1787927403 | 23.89° C | 65% | 1021.4 hPa | 0 mm | - | - | - |
| 1787926804 | 23.89° C | 65% | 1021 hPa | 0 mm | - | - | - |
| 1787926203 | 23.89° C | 69% | 1021 hPa | 0 mm | - | - | - |
| 1787925615 | 22.78° C | 73% | 1021.7 hPa | 0 mm | - | - | - |
| 1787924404 | 22.22° C | 77% | 1022.1 hPa | 0 mm | - | - | - |
| 1787923803 | 22.22° C | 72% | 1021.9 hPa | 0 mm | - | - | - |
| 1787923203 | 21.67° C | 77% | 1022 hPa | 0 mm | - | - | - |
* Rain latest hour (hover to see other rain measurements)
** Current wind speed in m/s (hover to see current wind gust speed)